createdAt,value
2023-02-15T00:00:11.000Z,88.0
2023-02-15T00:00:26.000Z,88.0
2023-02-15T00:00:41.000Z,88.0
2023-02-15T00:00:56.000Z,88.0
2023-02-15T00:01:11.000Z,88.0
2023-02-15T00:01:26.000Z,88.0
2023-02-15T00:01:42.000Z,88.0
2023-02-15T00:01:57.000Z,88.0
2023-02-15T00:02:12.000Z,88.0
2023-02-15T00:02:27.000Z,88.0
2023-02-15T00:02:42.000Z,88.0
2023-02-15T00:02:57.000Z,88.0
2023-02-15T00:03:12.000Z,88.0
2023-02-15T00:03:27.000Z,88.0
2023-02-15T00:03:42.000Z,88.0
2023-02-15T00:03:57.000Z,88.0
2023-02-15T00:04:12.000Z,88.0
2023-02-15T00:04:27.000Z,88.0
2023-02-15T00:04:42.000Z,88.0
2023-02-15T00:04:57.000Z,88.0
2023-02-15T00:05:12.000Z,88.0
2023-02-15T00:05:27.000Z,88.0
2023-02-15T00:05:42.000Z,88.0
2023-02-15T00:05:57.000Z,88.0
2023-02-15T00:06:12.000Z,88.0
2023-02-15T00:06:27.000Z,88.0
2023-02-15T00:06:42.000Z,88.0
2023-02-15T00:06:57.000Z,88.0
2023-02-15T00:07:11.000Z,88.0
2023-02-15T00:07:26.000Z,88.0
2023-02-15T00:07:41.000Z,88.0
2023-02-15T00:07:56.000Z,88.0
2023-02-15T00:08:11.000Z,88.0
2023-02-15T00:08:26.000Z,88.0
2023-02-15T00:08:41.000Z,88.0
2023-02-15T00:08:57.000Z,88.0
2023-02-15T00:09:12.000Z,88.0
2023-02-15T00:09:27.000Z,88.0
2023-02-15T00:09:42.000Z,88.0
2023-02-15T00:09:57.000Z,88.0
2023-02-15T00:10:12.000Z,88.0
2023-02-15T00:10:27.000Z,88.0
2023-02-15T00:10:42.000Z,88.0
2023-02-15T00:10:57.000Z,88.0
2023-02-15T00:11:12.000Z,87.0
2023-02-15T00:11:27.000Z,87.0
2023-02-15T00:11:42.000Z,87.0
2023-02-15T00:11:57.000Z,87.0
2023-02-15T00:12:12.000Z,87.0
2023-02-15T00:12:27.000Z,87.0
2023-02-15T00:12:42.000Z,87.0
2023-02-15T00:12:57.000Z,87.0
2023-02-15T00:13:12.000Z,87.0
2023-02-15T00:13:27.000Z,87.0
2023-02-15T00:13:42.000Z,87.0
2023-02-15T00:13:57.000Z,86.0
2023-02-15T00:14:12.000Z,86.0
2023-02-15T00:14:26.000Z,86.0
2023-02-15T00:14:41.000Z,86.0
2023-02-15T00:14:56.000Z,86.0
2023-02-15T00:15:11.000Z,86.0
2023-02-15T00:15:26.000Z,86.0
2023-02-15T00:15:41.000Z,87.0
2023-02-15T00:15:56.000Z,87.0
2023-02-15T00:16:12.000Z,87.0
2023-02-15T00:16:27.000Z,87.0
2023-02-15T00:16:42.000Z,87.0
2023-02-15T00:16:57.000Z,87.0
2023-02-15T00:17:12.000Z,87.0
2023-02-15T00:17:27.000Z,87.0
2023-02-15T00:17:42.000Z,87.0
2023-02-15T00:17:57.000Z,87.0
2023-02-15T00:18:12.000Z,87.0
2023-02-15T00:18:27.000Z,87.0
2023-02-15T00:18:42.000Z,87.0
2023-02-15T00:18:57.000Z,87.0
2023-02-15T00:19:12.000Z,87.0
2023-02-15T00:19:27.000Z,87.0
2023-02-15T00:19:42.000Z,87.0
2023-02-15T00:19:57.000Z,87.0
2023-02-15T00:20:12.000Z,87.0
2023-02-15T00:20:27.000Z,87.0
2023-02-15T00:20:42.000Z,87.0
2023-02-15T00:20:57.000Z,87.0
2023-02-15T00:21:12.000Z,87.0
2023-02-15T00:21:27.000Z,88.0
2023-02-15T00:21:41.000Z,88.0
2023-02-15T00:21:56.000Z,88.0
2023-02-15T00:22:11.000Z,88.0
2023-02-15T00:22:26.000Z,88.0
2023-02-15T00:22:41.000Z,88.0
2023-02-15T00:22:56.000Z,88.0
2023-02-15T00:23:11.000Z,88.0
2023-02-15T00:23:27.000Z,88.0
2023-02-15T00:23:42.000Z,88.0
2023-02-15T00:23:57.000Z,88.0
2023-02-15T00:24:12.000Z,88.0
2023-02-15T00:24:27.000Z,87.0
2023-02-15T00:24:42.000Z,87.0
2023-02-15T00:24:57.000Z,88.0
2023-02-15T00:25:12.000Z,88.0
2023-02-15T00:25:27.000Z,88.0
2023-02-15T00:25:42.000Z,88.0
2023-02-15T00:25:57.000Z,88.0
2023-02-15T00:26:12.000Z,88.0
2023-02-15T00:26:27.000Z,88.0
2023-02-15T00:26:42.000Z,88.0
2023-02-15T00:26:57.000Z,87.0
2023-02-15T00:27:12.000Z,87.0
2023-02-15T00:27:27.000Z,87.0
2023-02-15T00:27:42.000Z,87.0
2023-02-15T00:27:57.000Z,87.0
2023-02-15T00:28:12.000Z,88.0
2023-02-15T00:28:27.000Z,88.0
2023-02-15T00:28:42.000Z,88.0
2023-02-15T00:28:56.000Z,88.0
2023-02-15T00:29:11.000Z,87.0
2023-02-15T00:29:26.000Z,87.0
2023-02-15T00:29:41.000Z,87.0
2023-02-15T00:29:56.000Z,87.0
2023-02-15T00:30:11.000Z,88.0
2023-02-15T00:30:26.000Z,88.0
2023-02-15T00:30:42.000Z,88.0
2023-02-15T00:30:57.000Z,88.0
2023-02-15T00:31:12.000Z,87.0
2023-02-15T00:31:27.000Z,87.0
2023-02-15T00:31:42.000Z,87.0
2023-02-15T00:31:57.000Z,87.0
2023-02-15T00:32:12.000Z,87.0
2023-02-15T00:32:27.000Z,87.0
2023-02-15T00:32:42.000Z,87.0
2023-02-15T00:32:57.000Z,87.0
2023-02-15T00:33:12.000Z,87.0
2023-02-15T00:33:27.000Z,86.0
2023-02-15T00:33:42.000Z,86.0
2023-02-15T00:33:57.000Z,86.0
2023-02-15T00:34:12.000Z,86.0
2023-02-15T00:34:27.000Z,86.0
2023-02-15T00:34:42.000Z,86.0
2023-02-15T00:34:57.000Z,86.0
2023-02-15T00:35:12.000Z,86.0
2023-02-15T00:35:27.000Z,86.0
2023-02-15T00:35:42.000Z,86.0
2023-02-15T00:35:57.000Z,86.0
2023-02-15T00:36:11.000Z,86.0
2023-02-15T00:36:26.000Z,86.0
2023-02-15T00:36:41.000Z,86.0
2023-02-15T00:36:56.000Z,86.0
2023-02-15T00:37:11.000Z,86.0
2023-02-15T00:37:26.000Z,86.0
2023-02-15T00:37:41.000Z,86.0
2023-02-15T00:37:57.000Z,85.0
2023-02-15T00:38:12.000Z,85.0
2023-02-15T00:38:27.000Z,85.0
2023-02-15T00:38:42.000Z,85.0
2023-02-15T00:38:57.000Z,85.0
2023-02-15T00:39:12.000Z,85.0
2023-02-15T00:39:27.000Z,85.0
2023-02-15T00:39:42.000Z,85.0
2023-02-15T00:39:57.000Z,85.0
2023-02-15T00:40:12.000Z,85.0
2023-02-15T00:40:27.000Z,85.0
2023-02-15T00:40:42.000Z,85.0
2023-02-15T00:40:57.000Z,85.0
2023-02-15T00:41:12.000Z,85.0
2023-02-15T00:41:27.000Z,86.0
2023-02-15T00:41:42.000Z,85.0
2023-02-15T00:41:57.000Z,85.0
2023-02-15T00:42:12.000Z,85.0
2023-02-15T00:42:27.000Z,85.0
2023-02-15T00:42:42.000Z,86.0
2023-02-15T00:42:57.000Z,86.0
2023-02-15T00:43:12.000Z,86.0
2023-02-15T00:43:26.000Z,86.0
2023-02-15T00:43:41.000Z,85.0
2023-02-15T00:43:56.000Z,85.0
2023-02-15T00:44:11.000Z,86.0
2023-02-15T00:44:26.000Z,86.0
2023-02-15T00:44:41.000Z,85.0
2023-02-15T00:44:56.000Z,85.0
2023-02-15T00:45:11.000Z,85.0
2023-02-15T00:45:27.000Z,85.0
2023-02-15T00:45:42.000Z,85.0
2023-02-15T00:45:57.000Z,85.0
2023-02-15T00:46:12.000Z,85.0
2023-02-15T00:46:27.000Z,85.0
2023-02-15T00:46:42.000Z,85.0
2023-02-15T00:46:57.000Z,84.0
2023-02-15T00:47:12.000Z,84.0
2023-02-15T00:47:27.000Z,84.0
2023-02-15T00:47:42.000Z,84.0
2023-02-15T00:47:57.000Z,84.0
2023-02-15T00:48:12.000Z,84.0
2023-02-15T00:48:27.000Z,84.0
2023-02-15T00:48:42.000Z,84.0
2023-02-15T00:48:57.000Z,84.0
2023-02-15T00:49:12.000Z,84.0
2023-02-15T00:49:27.000Z,84.0
2023-02-15T00:49:42.000Z,84.0
2023-02-15T00:49:57.000Z,84.0
2023-02-15T00:50:12.000Z,84.0
2023-02-15T00:50:27.000Z,84.0
2023-02-15T00:50:42.000Z,84.0
2023-02-15T00:50:56.000Z,84.0
2023-02-15T00:51:11.000Z,84.0
2023-02-15T00:51:26.000Z,84.0
2023-02-15T00:51:41.000Z,84.0
2023-02-15T00:51:56.000Z,84.0
2023-02-15T00:52:11.000Z,84.0
2023-02-15T00:52:26.000Z,84.0
2023-02-15T00:52:42.000Z,84.0
2023-02-15T00:52:57.000Z,84.0
2023-02-15T00:53:12.000Z,84.0
2023-02-15T00:53:27.000Z,84.0
2023-02-15T00:53:42.000Z,84.0
2023-02-15T00:53:57.000Z,84.0
2023-02-15T00:54:12.000Z,84.0
2023-02-15T00:54:27.000Z,84.0
2023-02-15T00:54:42.000Z,84.0
2023-02-15T00:54:57.000Z,84.0
2023-02-15T00:55:12.000Z,84.0
2023-02-15T00:55:27.000Z,84.0
2023-02-15T00:55:42.000Z,84.0
2023-02-15T00:55:57.000Z,84.0
2023-02-15T00:56:12.000Z,84.0
2023-02-15T00:56:27.000Z,84.0
2023-02-15T00:56:42.000Z,84.0
2023-02-15T00:56:57.000Z,84.0
2023-02-15T00:57:12.000Z,84.0
2023-02-15T00:57:27.000Z,84.0
2023-02-15T00:57:42.000Z,84.0
2023-02-15T00:57:57.000Z,84.0
2023-02-15T00:58:11.000Z,84.0
2023-02-15T00:58:26.000Z,84.0
2023-02-15T00:58:41.000Z,84.0
2023-02-15T00:58:56.000Z,84.0
2023-02-15T00:59:11.000Z,84.0
2023-02-15T00:59:26.000Z,84.0
2023-02-15T00:59:41.000Z,84.0
2023-02-15T00:59:57.000Z,84.0
2023-02-15T01:00:12.000Z,84.0
2023-02-15T01:00:27.000Z,84.0
2023-02-15T01:00:42.000Z,84.0
2023-02-15T01:00:57.000Z,84.0
2023-02-15T01:01:12.000Z,84.0
2023-02-15T01:01:27.000Z,84.0
2023-02-15T01:01:42.000Z,84.0
2023-02-15T01:01:57.000Z,84.0
2023-02-15T01:02:12.000Z,84.0
2023-02-15T01:02:27.000Z,85.0
2023-02-15T01:02:42.000Z,85.0
2023-02-15T01:02:57.000Z,85.0
2023-02-15T01:03:12.000Z,85.0
2023-02-15T01:03:27.000Z,85.0
2023-02-15T01:03:42.000Z,85.0
2023-02-15T01:03:57.000Z,85.0
2023-02-15T01:04:12.000Z,85.0
2023-02-15T01:04:27.000Z,85.0
2023-02-15T01:04:42.000Z,85.0
2023-02-15T01:04:57.000Z,86.0
2023-02-15T01:05:12.000Z,85.0
2023-02-15T01:05:26.000Z,85.0
2023-02-15T01:05:41.000Z,85.0
2023-02-15T01:05:56.000Z,85.0
2023-02-15T01:06:11.000Z,85.0
2023-02-15T01:06:26.000Z,85.0
2023-02-15T01:06:41.000Z,85.0
2023-02-15T01:06:56.000Z,85.0
2023-02-15T01:07:12.000Z,85.0
2023-02-15T01:07:27.000Z,85.0
2023-02-15T01:07:42.000Z,85.0
2023-02-15T01:07:57.000Z,85.0
2023-02-15T01:08:12.000Z,85.0
2023-02-15T01:08:27.000Z,85.0
2023-02-15T01:08:42.000Z,85.0
2023-02-15T01:08:57.000Z,85.0
2023-02-15T01:09:12.000Z,85.0
2023-02-15T01:09:27.000Z,85.0
2023-02-15T01:09:42.000Z,85.0
2023-02-15T01:09:57.000Z,85.0
2023-02-15T01:10:12.000Z,85.0
2023-02-15T01:10:27.000Z,85.0
2023-02-15T01:10:42.000Z,85.0
2023-02-15T01:10:57.000Z,85.0
2023-02-15T01:11:12.000Z,85.0
2023-02-15T01:11:27.000Z,85.0
2023-02-15T01:11:42.000Z,85.0
2023-02-15T01:11:57.000Z,85.0
2023-02-15T01:12:12.000Z,85.0
2023-02-15T01:12:27.000Z,85.0
2023-02-15T01:12:42.000Z,85.0
2023-02-15T01:12:56.000Z,85.0
2023-02-15T01:13:11.000Z,85.0
2023-02-15T01:13:26.000Z,85.0
2023-02-15T01:13:41.000Z,85.0
2023-02-15T01:13:56.000Z,85.0
2023-02-15T01:14:11.000Z,85.0
2023-02-15T01:14:26.000Z,85.0
2023-02-15T01:14:42.000Z,85.0
2023-02-15T01:14:57.000Z,85.0
2023-02-15T01:15:12.000Z,85.0
2023-02-15T01:15:27.000Z,85.0
2023-02-15T01:15:42.000Z,85.0
2023-02-15T01:15:57.000Z,85.0
2023-02-15T01:16:12.000Z,85.0
2023-02-15T01:16:27.000Z,85.0
2023-02-15T01:16:42.000Z,85.0
2023-02-15T01:16:57.000Z,85.0
2023-02-15T01:17:12.000Z,85.0
2023-02-15T01:17:27.000Z,85.0
2023-02-15T01:17:42.000Z,85.0
2023-02-15T01:17:57.000Z,85.0
2023-02-15T01:18:12.000Z,85.0
2023-02-15T01:18:27.000Z,84.0
2023-02-15T01:18:42.000Z,84.0
2023-02-15T01:18:57.000Z,84.0
2023-02-15T01:19:12.000Z,84.0
2023-02-15T01:19:27.000Z,84.0
2023-02-15T01:19:42.000Z,84.0
2023-02-15T01:19:57.000Z,84.0
2023-02-15T01:20:11.000Z,84.0
2023-02-15T01:20:26.000Z,83.0
2023-02-15T01:20:41.000Z,83.0
2023-02-15T01:20:56.000Z,83.0
2023-02-15T01:21:11.000Z,83.0
2023-02-15T01:21:26.000Z,83.0
2023-02-15T01:21:41.000Z,83.0
2023-02-15T01:21:57.000Z,83.0
2023-02-15T01:22:12.000Z,83.0
2023-02-15T01:22:27.000Z,83.0
2023-02-15T01:22:42.000Z,83.0
2023-02-15T01:22:57.000Z,83.0
2023-02-15T01:23:12.000Z,83.0
2023-02-15T01:23:27.000Z,83.0
2023-02-15T01:23:42.000Z,83.0
2023-02-15T01:23:57.000Z,83.0
2023-02-15T01:24:12.000Z,82.0
2023-02-15T01:24:27.000Z,83.0
2023-02-15T01:24:42.000Z,83.0
2023-02-15T01:24:57.000Z,82.0
2023-02-15T01:25:12.000Z,82.0
2023-02-15T01:25:27.000Z,82.0
2023-02-15T01:25:42.000Z,82.0
2023-02-15T01:25:57.000Z,82.0
2023-02-15T01:26:12.000Z,82.0
2023-02-15T01:26:27.000Z,82.0
2023-02-15T01:26:42.000Z,82.0
2023-02-15T01:26:57.000Z,82.0
2023-02-15T01:27:12.000Z,82.0
2023-02-15T01:27:26.000Z,82.0
2023-02-15T01:27:41.000Z,82.0
2023-02-15T01:27:56.000Z,82.0
2023-02-15T01:28:11.000Z,82.0
2023-02-15T01:28:26.000Z,82.0
2023-02-15T01:28:41.000Z,82.0
2023-02-15T01:28:56.000Z,82.0
2023-02-15T01:29:12.000Z,81.0
2023-02-15T01:29:27.000Z,80.0
2023-02-15T01:29:42.000Z,80.0
2023-02-15T01:29:57.000Z,80.0
2023-02-15T01:30:12.000Z,81.0
2023-02-15T01:30:27.000Z,81.0
2023-02-15T01:30:42.000Z,82.0
2023-02-15T01:30:57.000Z,83.0
2023-02-15T01:31:12.000Z,83.0
2023-02-15T01:31:27.000Z,84.0
2023-02-15T01:31:42.000Z,84.0
2023-02-15T01:31:57.000Z,85.0
2023-02-15T01:32:12.000Z,85.0
2023-02-15T01:32:27.000Z,86.0
2023-02-15T01:32:42.000Z,86.0
2023-02-15T01:32:57.000Z,87.0
2023-02-15T01:33:12.000Z,87.0
2023-02-15T01:33:27.000Z,87.0
2023-02-15T01:33:42.000Z,87.0
2023-02-15T01:33:57.000Z,87.0
2023-02-15T01:34:12.000Z,87.0
2023-02-15T01:34:27.000Z,87.0
2023-02-15T01:34:41.000Z,87.0
2023-02-15T01:34:56.000Z,87.0
2023-02-15T01:35:11.000Z,87.0
2023-02-15T01:35:26.000Z,87.0
2023-02-15T01:35:41.000Z,86.0
2023-02-15T01:35:56.000Z,86.0
2023-02-15T01:36:11.000Z,86.0
2023-02-15T01:36:27.000Z,86.0
2023-02-15T01:36:42.000Z,86.0
2023-02-15T01:36:57.000Z,86.0
2023-02-15T01:37:12.000Z,86.0
2023-02-15T01:37:27.000Z,86.0
2023-02-15T01:37:42.000Z,86.0
2023-02-15T01:37:57.000Z,86.0
2023-02-15T01:38:12.000Z,86.0
2023-02-15T01:38:27.000Z,86.0
2023-02-15T01:38:42.000Z,85.0
2023-02-15T01:38:57.000Z,85.0
2023-02-15T01:39:12.000Z,85.0
2023-02-15T01:39:27.000Z,85.0
2023-02-15T01:39:42.000Z,85.0
2023-02-15T01:39:57.000Z,85.0
2023-02-15T01:40:12.000Z,85.0
2023-02-15T01:40:27.000Z,85.0
2023-02-15T01:40:42.000Z,85.0
2023-02-15T01:40:57.000Z,85.0
2023-02-15T01:41:12.000Z,85.0
2023-02-15T01:41:27.000Z,85.0
2023-02-15T01:41:42.000Z,85.0
2023-02-15T01:41:56.000Z,85.0
2023-02-15T01:42:11.000Z,85.0
2023-02-15T01:42:26.000Z,85.0
2023-02-15T01:42:41.000Z,84.0
2023-02-15T01:42:56.000Z,83.0
2023-02-15T01:43:11.000Z,82.0
2023-02-15T01:43:26.000Z,82.0
2023-02-15T01:43:42.000Z,82.0
2023-02-15T01:43:57.000Z,82.0
2023-02-15T01:44:12.000Z,82.0
2023-02-15T01:44:27.000Z,82.0
2023-02-15T01:44:42.000Z,82.0
2023-02-15T01:44:57.000Z,82.0
2023-02-15T01:45:12.000Z,82.0
2023-02-15T01:45:27.000Z,83.0
2023-02-15T01:45:42.000Z,83.0
2023-02-15T01:45:57.000Z,83.0
2023-02-15T01:46:12.000Z,83.0
2023-02-15T01:46:27.000Z,83.0
2023-02-15T01:46:42.000Z,84.0
2023-02-15T01:46:57.000Z,84.0
2023-02-15T01:47:12.000Z,84.0
2023-02-15T01:47:42.000Z,85.0
2023-02-15T01:47:57.000Z,85.0
2023-02-15T01:48:12.000Z,85.0
2023-02-15T01:48:27.000Z,85.0
2023-02-15T01:48:42.000Z,85.0
2023-02-15T01:48:57.000Z,85.0
2023-02-15T01:49:11.000Z,85.0
2023-02-15T01:49:26.000Z,86.0
2023-02-15T01:49:41.000Z,86.0
2023-02-15T01:49:56.000Z,86.0
2023-02-15T01:50:11.000Z,86.0
2023-02-15T01:50:26.000Z,86.0
2023-02-15T01:50:41.000Z,86.0
2023-02-15T01:50:56.000Z,86.0
2023-02-15T01:51:12.000Z,86.0
2023-02-15T01:51:27.000Z,86.0
2023-02-15T01:51:42.000Z,86.0
2023-02-15T01:51:57.000Z,87.0
2023-02-15T01:52:12.000Z,87.0
2023-02-15T01:52:27.000Z,87.0
2023-02-15T01:52:42.000Z,87.0
2023-02-15T01:52:57.000Z,87.0
2023-02-15T01:53:12.000Z,87.0
2023-02-15T01:53:27.000Z,87.0
2023-02-15T01:53:42.000Z,86.0
2023-02-15T01:53:57.000Z,86.0
2023-02-15T01:54:12.000Z,86.0
2023-02-15T01:54:27.000Z,86.0
2023-02-15T01:54:42.000Z,86.0
2023-02-15T01:54:57.000Z,86.0
2023-02-15T01:55:12.000Z,85.0
2023-02-15T01:55:27.000Z,85.0
2023-02-15T01:55:42.000Z,85.0
2023-02-15T01:55:57.000Z,85.0
2023-02-15T01:56:12.000Z,85.0
2023-02-15T01:56:27.000Z,85.0
2023-02-15T01:56:41.000Z,85.0
2023-02-15T01:56:56.000Z,85.0
2023-02-15T01:57:11.000Z,85.0
2023-02-15T01:57:26.000Z,85.0
2023-02-15T01:57:41.000Z,85.0
2023-02-15T01:57:56.000Z,85.0
2023-02-15T01:58:11.000Z,85.0
2023-02-15T01:58:27.000Z,85.0
2023-02-15T01:58:42.000Z,85.0
2023-02-15T01:58:57.000Z,85.0
2023-02-15T01:59:12.000Z,85.0
2023-02-15T01:59:27.000Z,85.0
2023-02-15T01:59:42.000Z,85.0
2023-02-15T01:59:57.000Z,86.0
2023-02-15T02:00:12.000Z,86.0
2023-02-15T02:00:27.000Z,86.0
2023-02-15T02:00:42.000Z,86.0
2023-02-15T02:00:57.000Z,85.0
2023-02-15T02:01:12.000Z,85.0
2023-02-15T02:01:27.000Z,85.0
2023-02-15T02:01:42.000Z,85.0
2023-02-15T02:01:57.000Z,85.0
2023-02-15T02:02:12.000Z,86.0
2023-02-15T02:02:27.000Z,86.0
2023-02-15T02:02:42.000Z,85.0
2023-02-15T02:02:57.000Z,86.0
2023-02-15T02:03:12.000Z,86.0
2023-02-15T02:03:27.000Z,86.0
2023-02-15T02:03:42.000Z,86.0
2023-02-15T02:03:57.000Z,86.0
2023-02-15T02:04:11.000Z,85.0
2023-02-15T02:04:26.000Z,85.0
2023-02-15T02:04:41.000Z,85.0
2023-02-15T02:04:56.000Z,84.0
2023-02-15T02:05:11.000Z,84.0
2023-02-15T02:05:26.000Z,84.0
2023-02-15T02:05:41.000Z,84.0
2023-02-15T02:05:57.000Z,84.0
2023-02-15T02:06:12.000Z,84.0
2023-02-15T02:06:27.000Z,85.0
2023-02-15T02:06:42.000Z,84.0
2023-02-15T02:06:57.000Z,84.0
2023-02-15T02:07:12.000Z,84.0
2023-02-15T02:07:27.000Z,84.0
2023-02-15T02:07:42.000Z,85.0
2023-02-15T02:07:57.000Z,85.0
2023-02-15T02:08:12.000Z,85.0
2023-02-15T02:08:27.000Z,86.0
2023-02-15T02:08:42.000Z,86.0
2023-02-15T02:08:57.000Z,86.0
2023-02-15T02:09:12.000Z,87.0
2023-02-15T02:09:27.000Z,87.0
2023-02-15T02:09:42.000Z,87.0
2023-02-15T02:09:57.000Z,87.0
2023-02-15T02:10:12.000Z,87.0
2023-02-15T02:10:27.000Z,87.0
2023-02-15T02:10:42.000Z,88.0
2023-02-15T02:10:57.000Z,88.0
2023-02-15T02:11:12.000Z,88.0
2023-02-15T02:11:26.000Z,88.0
2023-02-15T02:11:41.000Z,88.0
2023-02-15T02:11:56.000Z,88.0
2023-02-15T02:12:11.000Z,89.0
2023-02-15T02:12:26.000Z,89.0
2023-02-15T02:12:41.000Z,89.0
2023-02-15T02:12:56.000Z,89.0
2023-02-15T02:13:11.000Z,89.0
2023-02-15T02:13:27.000Z,89.0
2023-02-15T02:13:42.000Z,89.0
2023-02-15T02:13:57.000Z,89.0
2023-02-15T02:14:12.000Z,89.0
2023-02-15T02:14:27.000Z,89.0
2023-02-15T02:14:42.000Z,89.0
2023-02-15T02:14:57.000Z,89.0
2023-02-15T02:15:12.000Z,89.0
2023-02-15T02:15:27.000Z,89.0
2023-02-15T02:15:42.000Z,89.0
2023-02-15T02:15:57.000Z,89.0
2023-02-15T02:16:12.000Z,89.0
2023-02-15T02:16:27.000Z,89.0
2023-02-15T02:16:42.000Z,89.0
2023-02-15T02:16:57.000Z,88.0
2023-02-15T02:17:12.000Z,88.0
2023-02-15T02:17:27.000Z,88.0
2023-02-15T02:17:42.000Z,88.0
2023-02-15T02:17:57.000Z,88.0
2023-02-15T02:18:12.000Z,88.0
2023-02-15T02:18:27.000Z,88.0
2023-02-15T02:18:42.000Z,88.0
2023-02-15T02:18:56.000Z,88.0
2023-02-15T02:19:11.000Z,88.0
2023-02-15T02:19:26.000Z,87.0
2023-02-15T02:19:41.000Z,88.0
2023-02-15T02:19:56.000Z,88.0
2023-02-15T02:20:11.000Z,88.0
2023-02-15T02:20:26.000Z,88.0
2023-02-15T02:20:41.000Z,88.0
2023-02-15T02:20:57.000Z,88.0
2023-02-15T02:21:12.000Z,89.0
2023-02-15T02:21:27.000Z,89.0
2023-02-15T02:21:42.000Z,89.0
2023-02-15T02:21:57.000Z,90.0
2023-02-15T02:22:12.000Z,90.0
2023-02-15T02:22:27.000Z,90.0
2023-02-15T02:22:42.000Z,90.0
2023-02-15T02:22:57.000Z,90.0
2023-02-15T02:23:12.000Z,90.0
2023-02-15T02:23:27.000Z,90.0
2023-02-15T02:23:42.000Z,90.0
2023-02-15T02:23:57.000Z,90.0
2023-02-15T02:24:12.000Z,90.0
2023-02-15T02:24:27.000Z,91.0
2023-02-15T02:24:42.000Z,91.0
2023-02-15T02:24:57.000Z,91.0
2023-02-15T02:25:12.000Z,91.0
2023-02-15T02:25:27.000Z,91.0
2023-02-15T02:25:42.000Z,91.0
2023-02-15T02:25:57.000Z,91.0
2023-02-15T02:26:12.000Z,91.0
2023-02-15T02:26:26.000Z,91.0
2023-02-15T02:26:41.000Z,91.0
2023-02-15T02:26:56.000Z,91.0
2023-02-15T02:27:11.000Z,91.0
2023-02-15T02:27:26.000Z,91.0
2023-02-15T02:27:41.000Z,90.0
2023-02-15T02:27:56.000Z,90.0
2023-02-15T02:28:11.000Z,90.0
2023-02-15T02:28:27.000Z,90.0
2023-02-15T02:28:42.000Z,90.0
2023-02-15T02:28:57.000Z,90.0
2023-02-15T02:29:12.000Z,90.0
2023-02-15T02:29:27.000Z,90.0
2023-02-15T02:29:42.000Z,90.0
2023-02-15T02:29:57.000Z,90.0
2023-02-15T02:30:12.000Z,90.0
2023-02-15T02:30:27.000Z,90.0
2023-02-15T02:30:42.000Z,90.0
2023-02-15T02:30:57.000Z,90.0
2023-02-15T02:31:12.000Z,90.0
2023-02-15T02:31:27.000Z,90.0
2023-02-15T02:31:42.000Z,90.0
2023-02-15T02:31:57.000Z,90.0
2023-02-15T02:32:12.000Z,90.0
2023-02-15T02:32:27.000Z,90.0
2023-02-15T02:32:42.000Z,90.0
2023-02-15T02:32:57.000Z,90.0
2023-02-15T02:33:12.000Z,90.0
2023-02-15T02:33:27.000Z,90.0
2023-02-15T02:33:42.000Z,90.0
2023-02-15T02:33:56.000Z,90.0
2023-02-15T02:34:11.000Z,90.0
2023-02-15T02:34:26.000Z,90.0
2023-02-15T02:34:41.000Z,90.0
2023-02-15T02:34:56.000Z,90.0
2023-02-15T02:35:11.000Z,90.0
2023-02-15T02:35:26.000Z,90.0
2023-02-15T02:35:41.000Z,90.0
2023-02-15T02:35:57.000Z,90.0
2023-02-15T02:36:12.000Z,90.0
2023-02-15T02:36:27.000Z,90.0
2023-02-15T02:36:42.000Z,90.0
2023-02-15T02:36:57.000Z,90.0
2023-02-15T02:37:12.000Z,90.0
2023-02-15T02:37:27.000Z,90.0
2023-02-15T02:37:42.000Z,89.0
2023-02-15T02:37:57.000Z,89.0
2023-02-15T02:38:12.000Z,89.0
2023-02-15T02:38:27.000Z,89.0
2023-02-15T02:38:42.000Z,89.0
2023-02-15T02:38:57.000Z,89.0
2023-02-15T02:39:12.000Z,89.0
2023-02-15T02:39:27.000Z,89.0
2023-02-15T02:39:42.000Z,89.0
2023-02-15T02:39:57.000Z,89.0
2023-02-15T02:40:12.000Z,89.0
2023-02-15T02:40:27.000Z,89.0
2023-02-15T02:40:42.000Z,89.0
2023-02-15T02:40:57.000Z,90.0
2023-02-15T02:41:12.000Z,90.0
2023-02-15T02:41:27.000Z,90.0
2023-02-15T02:41:41.000Z,90.0
2023-02-15T02:41:56.000Z,90.0
2023-02-15T02:42:11.000Z,90.0
2023-02-15T02:42:26.000Z,90.0
2023-02-15T02:42:41.000Z,90.0
2023-02-15T02:42:56.000Z,90.0
2023-02-15T02:43:11.000Z,90.0
2023-02-15T02:43:27.000Z,90.0
2023-02-15T02:43:42.000Z,89.0
2023-02-15T02:43:57.000Z,89.0
2023-02-15T02:44:12.000Z,89.0
2023-02-15T02:44:27.000Z,89.0
2023-02-15T02:44:42.000Z,89.0
2023-02-15T02:44:57.000Z,89.0
2023-02-15T02:45:12.000Z,89.0
2023-02-15T02:45:27.000Z,89.0
2023-02-15T02:45:42.000Z,89.0
2023-02-15T02:45:57.000Z,88.0
2023-02-15T02:46:12.000Z,88.0
2023-02-15T02:46:27.000Z,88.0
2023-02-15T02:46:42.000Z,88.0
2023-02-15T02:46:57.000Z,88.0
2023-02-15T02:47:12.000Z,88.0
2023-02-15T02:47:27.000Z,88.0
2023-02-15T02:47:42.000Z,88.0
2023-02-15T02:47:57.000Z,88.0
2023-02-15T02:48:12.000Z,88.0
2023-02-15T02:48:27.000Z,87.0
2023-02-15T02:48:42.000Z,87.0
2023-02-15T02:48:57.000Z,87.0
2023-02-15T02:49:11.000Z,87.0
2023-02-15T02:49:26.000Z,87.0
2023-02-15T02:49:41.000Z,87.0
2023-02-15T02:49:56.000Z,88.0
2023-02-15T02:50:11.000Z,88.0
2023-02-15T02:50:26.000Z,88.0
2023-02-15T02:50:41.000Z,88.0
2023-02-15T02:50:57.000Z,87.0
2023-02-15T02:51:12.000Z,88.0
2023-02-15T02:51:27.000Z,88.0
2023-02-15T02:51:42.000Z,88.0
2023-02-15T02:51:57.000Z,88.0
2023-02-15T02:52:12.000Z,88.0
2023-02-15T02:52:27.000Z,88.0
2023-02-15T02:52:42.000Z,88.0
2023-02-15T02:52:57.000Z,88.0
2023-02-15T02:53:12.000Z,88.0
2023-02-15T02:53:27.000Z,88.0
2023-02-15T02:53:42.000Z,88.0
2023-02-15T02:53:57.000Z,88.0
2023-02-15T02:54:12.000Z,87.0
2023-02-15T02:54:27.000Z,87.0
2023-02-15T02:54:42.000Z,87.0
2023-02-15T02:54:57.000Z,87.0
2023-02-15T02:55:12.000Z,87.0
2023-02-15T02:55:27.000Z,87.0
2023-02-15T02:55:42.000Z,87.0
2023-02-15T02:55:57.000Z,88.0
2023-02-15T02:56:12.000Z,88.0
2023-02-15T02:56:27.000Z,88.0
2023-02-15T02:56:41.000Z,88.0
2023-02-15T02:56:56.000Z,88.0
2023-02-15T02:57:11.000Z,88.0
2023-02-15T02:57:26.000Z,88.0
2023-02-15T02:57:41.000Z,88.0
2023-02-15T02:57:56.000Z,88.0
2023-02-15T02:58:11.000Z,88.0
2023-02-15T02:58:27.000Z,88.0
2023-02-15T02:58:42.000Z,88.0
2023-02-15T02:58:57.000Z,88.0
2023-02-15T02:59:12.000Z,88.0
2023-02-15T02:59:27.000Z,88.0
2023-02-15T02:59:42.000Z,88.0
2023-02-15T02:59:57.000Z,88.0
2023-02-15T03:00:12.000Z,88.0
2023-02-15T03:00:27.000Z,88.0
2023-02-15T03:00:42.000Z,88.0
2023-02-15T03:00:57.000Z,88.0
2023-02-15T03:01:12.000Z,88.0
2023-02-15T03:01:27.000Z,88.0
2023-02-15T03:01:42.000Z,88.0
2023-02-15T03:01:57.000Z,88.0
2023-02-15T03:02:12.000Z,88.0
2023-02-15T03:02:27.000Z,88.0
2023-02-15T03:02:42.000Z,88.0
2023-02-15T03:02:57.000Z,88.0
2023-02-15T03:03:12.000Z,88.0
2023-02-15T03:03:27.000Z,88.0
2023-02-15T03:03:42.000Z,88.0
2023-02-15T03:03:57.000Z,88.0
2023-02-15T03:04:11.000Z,88.0
2023-02-15T03:04:26.000Z,88.0
2023-02-15T03:04:41.000Z,88.0
2023-02-15T03:04:56.000Z,89.0
2023-02-15T03:05:11.000Z,89.0
2023-02-15T03:05:26.000Z,88.0
2023-02-15T03:05:41.000Z,88.0
2023-02-15T03:05:56.000Z,88.0
2023-02-15T03:06:12.000Z,88.0
2023-02-15T03:06:27.000Z,88.0
2023-02-15T03:06:42.000Z,88.0
2023-02-15T03:06:57.000Z,88.0
2023-02-15T03:07:12.000Z,89.0
2023-02-15T03:07:27.000Z,89.0
2023-02-15T03:07:42.000Z,89.0
2023-02-15T03:07:57.000Z,89.0
2023-02-15T03:08:12.000Z,89.0
2023-02-15T03:08:27.000Z,89.0
2023-02-15T03:08:42.000Z,89.0
2023-02-15T03:08:57.000Z,89.0
2023-02-15T03:09:12.000Z,89.0
2023-02-15T03:09:27.000Z,89.0
2023-02-15T03:09:42.000Z,89.0
2023-02-15T03:09:57.000Z,89.0
2023-02-15T03:10:12.000Z,89.0
2023-02-15T03:10:27.000Z,89.0
2023-02-15T03:10:42.000Z,89.0
2023-02-15T03:10:57.000Z,89.0
2023-02-15T03:11:12.000Z,89.0
2023-02-15T03:11:27.000Z,89.0
2023-02-15T03:11:41.000Z,89.0
2023-02-15T03:11:56.000Z,89.0
2023-02-15T03:12:11.000Z,89.0
2023-02-15T03:12:26.000Z,89.0
2023-02-15T03:12:41.000Z,89.0
2023-02-15T03:12:56.000Z,89.0
2023-02-15T03:13:11.000Z,89.0
2023-02-15T03:13:26.000Z,89.0
2023-02-15T03:13:42.000Z,89.0
2023-02-15T03:13:57.000Z,89.0
2023-02-15T03:14:12.000Z,89.0
2023-02-15T03:14:27.000Z,90.0
2023-02-15T03:14:42.000Z,90.0
2023-02-15T03:14:57.000Z,90.0
2023-02-15T03:15:12.000Z,90.0
2023-02-15T03:15:27.000Z,90.0
2023-02-15T03:15:42.000Z,90.0
2023-02-15T03:15:57.000Z,89.0
2023-02-15T03:16:12.000Z,89.0
2023-02-15T03:16:27.000Z,89.0
2023-02-15T03:16:42.000Z,89.0
2023-02-15T03:16:57.000Z,89.0
2023-02-15T03:17:12.000Z,89.0
2023-02-15T03:17:27.000Z,89.0
2023-02-15T03:17:42.000Z,89.0
2023-02-15T03:17:57.000Z,89.0
2023-02-15T03:18:12.000Z,89.0
2023-02-15T03:18:27.000Z,89.0
2023-02-15T03:18:42.000Z,89.0
2023-02-15T03:18:57.000Z,89.0
2023-02-15T03:19:12.000Z,89.0
2023-02-15T03:19:26.000Z,89.0
2023-02-15T03:19:41.000Z,89.0
2023-02-15T03:19:56.000Z,89.0